Pagrindinis puslapis
METAR-TAF:

METAR-TAF

Oro uostai :

Lavan Island, Iranas

platuma: 26-48-37N, ilguma: 53-21-22E, Aukštis: 23 m

Dabartinis oras

Ataskaita buvo paskelbta 8 valandos ir 40 minutes, ne 15:00 UTC
Vėjas 6 kt iš Šiaurės
Temperatūra 33°C
Drėgmė 75%
Slėgis 998 hPa
Matomumas: 3500 m
migla

METAR: OIBV 051500Z 35006KT 3500 HZ NSC 33/28 Q0998

Laikas: 04:10 (23:40 UTC)


TAF: trūkstamas

Orai ataskaitas ir orų prognozės (METAR, TAF).

turimą stotys yra geltonos ir raudonos taškus žemėlapyje.

Perkelti pele per norėdami pamatyti stoties vardą.

Tada spustelėkite, norėdami matyti oro stebėjimo ir prognozės.

Norėdami pakeisti žemėlapį: spustelėkite ant žalios mygtukų su juodo kryžiaus žemyn,; žalią mygtuką su brūkšneliu, jei norite nutolinti; arba žalių rodyklių gretimoms žemėlapius.


METAR-TAF: